createdAt,value
2017-07-03T00:00:02.437Z,98383.58
2017-07-03T00:02:29.848Z,98384.97
2017-07-03T00:04:57.295Z,98384.32
2017-07-03T00:07:24.728Z,98387.00
2017-07-03T00:09:52.140Z,98380.83
2017-07-03T00:12:19.580Z,98386.88
2017-07-03T00:14:47.061Z,98386.53
2017-07-03T00:17:14.464Z,98384.89
2017-07-03T00:19:41.924Z,98388.92
2017-07-03T00:22:09.345Z,98387.96
2017-07-03T00:24:36.735Z,98390.61
2017-07-03T00:27:04.176Z,98381.27
2017-07-03T00:29:31.611Z,98380.03
2017-07-03T00:31:59.016Z,98385.25
2017-07-03T00:34:26.461Z,98384.84
2017-07-03T00:36:53.877Z,98383.33
2017-07-03T00:39:21.280Z,98382.50
2017-07-03T00:41:48.717Z,98388.17
2017-07-03T00:44:16.173Z,98389.66
2017-07-03T00:46:43.604Z,98381.08
2017-07-03T00:49:11.047Z,98386.75
2017-07-03T00:51:38.484Z,98387.31
2017-07-03T00:54:05.922Z,98393.08
2017-07-03T00:56:33.416Z,98393.20
2017-07-03T00:59:00.848Z,98392.37
2017-07-03T01:01:28.296Z,98398.42
2017-07-03T01:03:55.732Z,98399.06
2017-07-03T01:06:23.138Z,98399.34
2017-07-03T01:08:50.571Z,98400.48
2017-07-03T01:11:18.004Z,98397.87
2017-07-03T01:13:45.550Z,98401.02
2017-07-03T01:16:13.073Z,98403.14
2017-07-03T01:18:40.496Z,98403.20
2017-07-03T01:21:07.906Z,98405.42
2017-07-03T01:23:35.348Z,98401.94
2017-07-03T01:26:02.752Z,98399.31
2017-07-03T01:28:30.164Z,98401.77
2017-07-03T01:30:57.680Z,98406.34
2017-07-03T01:33:25.089Z,98407.09
2017-07-03T01:35:52.578Z,98405.18
2017-07-03T01:38:19.975Z,98413.60
2017-07-03T01:40:48.248Z,98406.41
2017-07-03T01:43:15.676Z,98404.70
2017-07-03T01:45:43.092Z,98409.23
2017-07-03T01:48:10.519Z,98411.22
2017-07-03T01:50:37.959Z,98399.36
2017-07-03T01:53:05.396Z,98401.39
2017-07-03T01:55:33.316Z,98394.59
2017-07-03T01:58:00.758Z,98398.32
2017-07-03T02:00:28.143Z,98389.89
2017-07-03T02:02:55.581Z,98393.54
2017-07-03T02:05:22.991Z,98392.59
2017-07-03T02:07:50.411Z,98395.95
2017-07-03T02:10:17.880Z,98390.43
2017-07-03T02:12:45.288Z,98389.88
2017-07-03T02:15:12.729Z,98399.47
2017-07-03T02:17:40.139Z,98390.63
2017-07-03T02:20:07.577Z,98386.11
2017-07-03T02:22:35.089Z,98385.98
2017-07-03T02:25:02.479Z,98387.00
2017-07-03T02:27:29.921Z,98379.63
2017-07-03T02:29:57.327Z,98389.01
2017-07-03T02:32:24.768Z,98392.96
2017-07-03T02:34:52.185Z,98390.14
2017-07-03T02:37:19.631Z,98386.81
2017-07-03T02:39:47.052Z,98389.62
2017-07-03T02:42:14.455Z,98393.48
2017-07-03T02:44:41.911Z,98389.29
2017-07-03T02:47:09.326Z,98387.50
2017-07-03T02:49:36.815Z,98389.41
2017-07-03T02:52:04.271Z,98390.64
2017-07-03T02:54:31.696Z,98393.36
2017-07-03T02:56:59.141Z,98390.73
2017-07-03T02:59:26.607Z,98393.08
2017-07-03T03:01:54.080Z,98387.09
2017-07-03T03:04:21.491Z,98387.89
2017-07-03T03:06:48.968Z,98390.67
2017-07-03T03:09:16.384Z,98392.19
2017-07-03T03:11:43.817Z,98391.69
2017-07-03T03:14:11.300Z,98397.86
2017-07-03T03:16:38.741Z,98391.91
2017-07-03T03:19:06.149Z,98393.17
2017-07-03T03:21:33.627Z,98387.70
2017-07-03T03:24:01.084Z,98397.80
2017-07-03T03:26:28.551Z,98396.12
2017-07-03T03:28:55.992Z,98398.19
2017-07-03T03:31:23.464Z,98402.27
2017-07-03T03:33:50.921Z,98400.39
2017-07-03T03:36:18.371Z,98403.45
2017-07-03T03:38:45.771Z,98404.34
2017-07-03T03:41:13.256Z,98402.95
2017-07-03T03:43:40.681Z,98405.05
2017-07-03T03:46:08.148Z,98406.50
2017-07-03T03:48:35.580Z,98401.47
2017-07-03T03:51:03.001Z,98402.46
2017-07-03T03:53:30.429Z,98403.63
2017-07-03T03:55:57.867Z,98410.64
2017-07-03T03:58:25.289Z,98407.77
2017-07-03T04:00:52.831Z,98410.39
2017-07-03T04:03:20.401Z,98412.15
2017-07-03T04:05:47.809Z,98412.80
2017-07-03T04:08:15.296Z,98411.66
2017-07-03T04:10:42.728Z,98411.89
2017-07-03T04:13:10.204Z,98406.94
2017-07-03T04:15:37.632Z,98409.38
2017-07-03T04:18:05.096Z,98410.58
2017-07-03T04:20:32.593Z,98419.99
2017-07-03T04:23:00.093Z,98419.22
2017-07-03T04:25:27.516Z,98419.12
2017-07-03T04:27:54.979Z,98422.77
2017-07-03T04:30:22.396Z,98421.84
2017-07-03T04:32:49.824Z,98423.41
2017-07-03T04:35:17.300Z,98427.58
2017-07-03T04:37:44.839Z,98431.04
2017-07-03T04:40:12.303Z,98426.31
2017-07-03T04:42:39.752Z,98430.23
2017-07-03T04:45:07.174Z,98432.30
2017-07-03T04:47:34.584Z,98433.02
2017-07-03T04:50:02.024Z,98435.70
2017-07-03T04:52:29.433Z,98440.14
2017-07-03T04:54:57.056Z,98437.34
2017-07-03T04:57:24.832Z,98435.82
2017-07-03T04:59:52.327Z,98440.58
2017-07-03T05:02:19.746Z,98436.28
2017-07-03T05:04:47.149Z,98430.85
2017-07-03T05:07:14.699Z,98434.23
2017-07-03T05:09:42.104Z,98440.19
2017-07-03T05:12:09.557Z,98443.20
2017-07-03T05:14:36.989Z,98444.33
2017-07-03T05:17:04.386Z,98441.99
2017-07-03T05:19:32.046Z,98437.89
2017-07-03T05:21:59.775Z,98441.44
2017-07-03T05:24:27.180Z,98441.06
2017-07-03T05:26:54.588Z,98435.88
2017-07-03T05:29:22.032Z,98444.79
2017-07-03T05:31:49.497Z,98446.81
2017-07-03T05:34:16.912Z,98444.14
2017-07-03T05:36:44.348Z,98445.87
2017-07-03T05:39:11.895Z,98454.45
2017-07-03T05:41:39.331Z,98450.75
2017-07-03T05:44:12.271Z,98449.50
2017-07-03T05:46:39.692Z,98453.63
2017-07-03T05:49:07.127Z,98455.66
2017-07-03T05:51:34.557Z,98457.14
2017-07-03T05:54:02.040Z,98455.57
2017-07-03T05:56:30.233Z,98457.70
2017-07-03T05:58:57.667Z,98448.61
2017-07-03T06:01:25.089Z,98446.27
2017-07-03T06:03:52.517Z,98447.86
2017-07-03T06:06:20.090Z,98442.04
2017-07-03T06:08:47.504Z,98446.11
2017-07-03T06:11:14.989Z,98438.75
2017-07-03T06:13:42.440Z,98441.27
2017-07-03T06:16:09.880Z,98442.86
2017-07-03T06:18:37.284Z,98441.57
2017-07-03T06:21:04.730Z,98447.44
2017-07-03T06:23:32.136Z,98444.94
2017-07-03T06:25:59.578Z,98450.95
2017-07-03T06:28:27.011Z,98448.23
2017-07-03T06:30:54.418Z,98447.95
2017-07-03T06:33:21.868Z,98447.44
2017-07-03T06:35:49.375Z,98448.56
2017-07-03T06:38:17.157Z,98443.70
2017-07-03T06:40:44.586Z,98446.66
2017-07-03T06:43:12.002Z,98451.91
2017-07-03T06:45:39.454Z,98455.64
2017-07-03T06:48:06.859Z,98458.80
2017-07-03T06:50:34.300Z,98454.48
2017-07-03T06:53:01.748Z,98455.77
2017-07-03T06:55:29.164Z,98455.45
2017-07-03T06:57:56.615Z,98455.03
2017-07-03T07:00:24.024Z,98451.56
2017-07-03T07:02:51.454Z,98449.55
2017-07-03T07:05:18.879Z,98444.70
2017-07-03T07:07:46.293Z,98443.39
2017-07-03T07:10:13.740Z,98445.31
2017-07-03T07:12:41.152Z,98437.16
2017-07-03T07:15:08.571Z,98440.24
2017-07-03T07:17:36.019Z,98434.77
2017-07-03T07:20:03.428Z,98438.48
2017-07-03T07:22:30.875Z,98437.71
2017-07-03T07:24:58.296Z,98435.34
2017-07-03T07:27:25.703Z,98434.15
2017-07-03T07:29:53.138Z,98431.77
2017-07-03T07:32:20.544Z,98432.72
2017-07-03T07:34:48.019Z,98436.29
2017-07-03T07:37:15.428Z,98435.34
2017-07-03T07:39:42.858Z,98433.84
2017-07-03T07:42:10.406Z,98431.93
2017-07-03T07:44:37.833Z,98430.38
2017-07-03T07:47:05.247Z,98424.91
2017-07-03T07:49:32.728Z,98438.00
2017-07-03T07:52:00.176Z,98435.12
2017-07-03T07:54:27.679Z,98422.34
2017-07-03T07:56:55.084Z,98434.09
2017-07-03T07:59:22.542Z,98428.41
2017-07-03T08:01:49.959Z,98423.42
2017-07-03T08:04:17.365Z,98426.09
2017-07-03T08:06:44.816Z,98422.36
2017-07-03T08:09:12.832Z,98423.06
2017-07-03T08:11:40.344Z,98419.48
2017-07-03T08:14:07.801Z,98417.96
2017-07-03T08:16:35.223Z,98421.22
2017-07-03T08:19:02.771Z,98422.40
2017-07-03T08:21:30.195Z,98416.30
2017-07-03T08:23:57.619Z,98418.51
2017-07-03T08:26:25.103Z,98418.92
2017-07-03T08:28:52.624Z,98419.46
2017-07-03T08:31:20.063Z,98417.00
2017-07-03T08:33:47.498Z,98414.95
2017-07-03T08:36:14.959Z,98420.63
2017-07-03T08:38:42.412Z,98425.47
2017-07-03T08:41:09.892Z,98427.07
2017-07-03T08:43:37.327Z,98418.27
2017-07-03T08:46:04.739Z,98422.92
2017-07-03T08:48:32.202Z,98412.17
2017-07-03T08:50:59.602Z,98407.13
2017-07-03T08:53:27.016Z,98414.59
2017-07-03T08:55:54.464Z,98410.70
2017-07-03T08:58:21.882Z,98413.99
2017-07-03T09:00:49.340Z,98412.14
2017-07-03T09:03:16.763Z,98414.94
2017-07-03T09:05:44.173Z,98418.31
2017-07-03T09:08:11.670Z,98412.22
2017-07-03T09:10:39.079Z,98417.57
2017-07-03T09:13:06.531Z,98419.62
2017-07-03T09:15:33.967Z,98415.41
2017-07-03T09:18:01.384Z,98407.59
2017-07-03T09:20:28.835Z,98408.28
2017-07-03T09:22:56.269Z,98409.39
2017-07-03T09:25:23.703Z,98406.09
2017-07-03T09:27:51.108Z,98404.52
2017-07-03T09:30:18.543Z,98400.91
2017-07-03T09:32:45.988Z,98402.73
2017-07-03T09:35:13.416Z,98402.62
2017-07-03T09:37:40.843Z,98399.25
2017-07-03T09:40:08.385Z,98394.45
2017-07-03T09:42:35.899Z,98396.41
2017-07-03T09:45:03.383Z,98393.71
2017-07-03T09:47:31.407Z,98394.70
2017-07-03T09:49:59.485Z,98401.48
2017-07-03T09:52:26.961Z,98403.66
2017-07-03T09:54:54.381Z,98398.22
2017-07-03T09:57:21.840Z,98394.38
2017-07-03T09:59:49.255Z,98403.64
2017-07-03T10:02:16.668Z,98397.74
2017-07-03T10:04:44.253Z,98400.64
2017-07-03T10:07:12.517Z,98393.88
2017-07-03T10:09:40.009Z,98399.16
2017-07-03T10:12:07.416Z,98398.38
2017-07-03T10:14:34.835Z,98394.81
2017-07-03T10:17:02.387Z,98392.31
2017-07-03T10:19:29.931Z,98394.34
2017-07-03T10:21:57.400Z,98389.78
2017-07-03T10:24:24.835Z,98386.99
2017-07-03T10:26:52.267Z,98384.32
2017-07-03T10:29:19.680Z,98378.52
2017-07-03T10:31:47.138Z,98377.84
2017-07-03T10:34:14.550Z,98370.53
2017-07-03T10:36:42.021Z,98369.61
2017-07-03T10:39:09.545Z,98370.37
2017-07-03T10:41:36.949Z,98371.41
2017-07-03T10:44:04.363Z,98372.42
2017-07-03T10:46:31.851Z,98370.96
2017-07-03T10:48:59.244Z,98361.63
2017-07-03T10:51:26.687Z,98366.00
2017-07-03T10:53:54.164Z,98370.75
2017-07-03T10:56:21.580Z,98364.72
2017-07-03T10:58:49.025Z,98373.22
2017-07-03T11:01:16.425Z,98368.98
2017-07-03T11:03:43.857Z,98362.41
2017-07-03T11:06:11.305Z,98353.44
2017-07-03T11:08:38.757Z,98356.98
2017-07-03T11:11:06.284Z,98357.03
2017-07-03T11:13:33.724Z,98350.78
2017-07-03T11:16:01.136Z,98353.73
2017-07-03T11:18:28.540Z,98351.50
2017-07-03T11:20:55.988Z,98350.16
2017-07-03T11:23:23.404Z,98349.50
2017-07-03T11:25:50.866Z,98346.48
2017-07-03T11:28:18.427Z,98347.23
2017-07-03T11:30:45.948Z,98348.17
2017-07-03T11:33:13.364Z,98342.41
2017-07-03T11:35:40.764Z,98341.94
2017-07-03T11:38:08.241Z,98339.55
2017-07-03T11:40:35.809Z,98339.17
2017-07-03T11:43:03.223Z,98339.60
2017-07-03T11:45:30.652Z,98336.14
2017-07-03T11:47:58.184Z,98335.31
2017-07-03T11:50:25.960Z,98332.80
2017-07-03T11:52:53.385Z,98332.41
2017-07-03T11:55:20.835Z,98323.84
2017-07-03T11:57:48.295Z,98317.73
2017-07-03T12:00:15.711Z,98321.72
2017-07-03T12:02:43.190Z,98323.81
2017-07-03T12:05:10.582Z,98322.48
2017-07-03T12:07:38.006Z,98318.27
2017-07-03T12:10:05.524Z,98319.42
2017-07-03T12:12:32.943Z,98319.91
2017-07-03T12:15:00.418Z,98313.82
2017-07-03T12:17:27.848Z,98313.30
2017-07-03T12:19:55.268Z,98306.98
2017-07-03T12:22:22.745Z,98309.24
2017-07-03T12:24:50.192Z,98301.55
2017-07-03T12:27:17.705Z,98305.48
2017-07-03T12:29:45.137Z,98305.08
2017-07-03T12:32:12.577Z,98304.84
2017-07-03T12:34:39.996Z,98298.41
2017-07-03T12:37:07.409Z,98288.95
2017-07-03T12:39:34.968Z,98289.73
2017-07-03T12:42:02.413Z,98284.53
2017-07-03T12:44:29.911Z,98280.41
2017-07-03T12:46:57.444Z,98280.38
2017-07-03T12:49:24.906Z,98269.81
2017-07-03T12:51:52.335Z,98274.77
2017-07-03T12:54:19.749Z,98274.06
2017-07-03T12:56:47.185Z,98265.63
2017-07-03T12:59:14.680Z,98272.04
2017-07-03T13:01:42.127Z,98263.23
2017-07-03T13:04:09.637Z,98266.00
2017-07-03T13:06:37.122Z,98258.52
2017-07-03T13:09:04.551Z,98267.36
2017-07-03T13:11:32.009Z,98270.30
2017-07-03T13:13:59.457Z,98266.51
2017-07-03T13:16:26.939Z,98271.78
2017-07-03T13:18:54.372Z,98271.66
2017-07-03T13:21:21.777Z,98267.00
2017-07-03T13:23:49.305Z,98268.52
2017-07-03T13:26:16.723Z,98269.25
2017-07-03T13:28:44.147Z,98260.61
2017-07-03T13:31:11.570Z,98260.14
2017-07-03T13:33:39.040Z,98251.10
2017-07-03T13:36:06.479Z,98246.45
2017-07-03T13:38:33.902Z,98250.13
2017-07-03T13:41:01.394Z,98243.81
2017-07-03T13:43:28.801Z,98242.68
2017-07-03T13:45:56.252Z,98244.86
2017-07-03T13:48:23.664Z,98246.24
2017-07-03T13:50:51.113Z,98241.77
2017-07-03T13:53:18.532Z,98235.55
2017-07-03T13:55:45.995Z,98236.87
2017-07-03T13:58:13.624Z,98234.01
2017-07-03T14:00:41.142Z,98231.59
2017-07-03T14:03:08.575Z,98224.00
2017-07-03T14:05:36.052Z,98227.84
2017-07-03T14:08:03.468Z,98223.95
2017-07-03T14:10:31.124Z,98218.28
2017-07-03T14:12:58.576Z,98222.16
2017-07-03T14:15:26.029Z,98214.67
2017-07-03T14:17:53.432Z,98218.84
2017-07-03T14:20:20.915Z,98207.36
2017-07-03T14:22:48.372Z,98208.72
2017-07-03T14:25:15.764Z,98210.86
2017-07-03T14:27:43.173Z,98205.94
2017-07-03T14:30:10.629Z,98199.87
2017-07-03T14:32:38.069Z,98198.00
2017-07-03T14:35:05.518Z,98192.24
2017-07-03T14:37:33.056Z,98190.94
2017-07-03T14:40:00.484Z,98186.12
2017-07-03T14:42:27.933Z,98183.17
2017-07-03T14:44:55.363Z,98183.05
2017-07-03T14:47:22.808Z,98180.35
2017-07-03T14:49:50.248Z,98180.88
2017-07-03T14:52:17.677Z,98181.34
2017-07-03T14:54:45.225Z,98177.88
2017-07-03T14:57:12.788Z,98172.00
2017-07-03T14:59:40.197Z,98171.45
2017-07-03T15:02:07.636Z,98175.92
2017-07-03T15:04:35.049Z,98175.61
2017-07-03T15:07:02.521Z,98171.75
2017-07-03T15:09:29.965Z,98171.92
2017-07-03T15:11:57.423Z,98176.22
2017-07-03T15:14:24.974Z,98168.56
2017-07-03T15:16:52.384Z,98182.17
2017-07-03T15:19:19.911Z,98177.09
2017-07-03T15:21:47.398Z,98170.97
2017-07-03T15:24:14.797Z,98180.44
2017-07-03T15:26:42.251Z,98171.31
2017-07-03T15:29:09.741Z,98166.70
2017-07-03T15:31:37.224Z,98161.98
2017-07-03T15:34:04.732Z,98169.57
2017-07-03T15:36:32.162Z,98158.93
2017-07-03T15:39:00.229Z,98165.30
2017-07-03T15:41:27.636Z,98167.36
2017-07-03T15:43:55.063Z,98165.17
2017-07-03T15:46:22.549Z,98169.50
2017-07-03T15:48:49.956Z,98168.06
2017-07-03T15:51:17.433Z,98162.55
2017-07-03T15:53:44.902Z,98168.97
2017-07-03T15:56:12.305Z,98171.78
2017-07-03T15:58:39.773Z,98169.13
2017-07-03T16:01:07.220Z,98168.35
2017-07-03T16:03:34.642Z,98166.65
2017-07-03T16:06:02.100Z,98164.73
2017-07-03T16:08:29.528Z,98164.18
2017-07-03T16:10:56.964Z,98166.02
2017-07-03T16:13:24.455Z,98155.56
2017-07-03T16:15:51.825Z,98159.02
2017-07-03T16:18:19.309Z,98155.23
2017-07-03T16:20:46.708Z,98153.62
2017-07-03T16:23:14.132Z,98150.25
2017-07-03T16:25:41.641Z,98147.70
2017-07-03T16:28:09.037Z,98143.57
2017-07-03T16:30:36.507Z,98151.50
2017-07-03T16:33:03.948Z,98145.23
2017-07-03T16:35:42.997Z,98152.30
2017-07-03T16:38:10.535Z,98145.25
2017-07-03T16:40:38.005Z,98148.24
2017-07-03T16:43:05.892Z,98145.58
2017-07-03T16:45:42.067Z,98136.98
2017-07-03T16:51:00.772Z,98140.89
2017-07-03T16:53:29.943Z,98141.22
2017-07-03T16:55:59.234Z,98138.47
2017-07-03T16:58:29.658Z,98144.72
2017-07-03T17:00:58.704Z,98134.26
2017-07-03T17:03:26.229Z,98140.13
2017-07-03T17:05:55.065Z,98137.62
2017-07-03T17:08:23.302Z,98138.39
2017-07-03T17:10:50.772Z,98136.83
2017-07-03T17:13:18.200Z,98130.18
2017-07-03T17:15:46.679Z,98134.05
2017-07-03T17:18:15.448Z,98133.91
2017-07-03T17:20:44.694Z,98135.74
2017-07-03T17:23:13.659Z,98134.70
2017-07-03T17:25:42.352Z,98143.53
2017-07-03T17:28:09.785Z,98144.30
2017-07-03T17:30:38.874Z,98141.17
2017-07-03T17:33:08.151Z,98142.72
2017-07-03T17:35:35.565Z,98139.56
2017-07-03T17:38:04.556Z,98144.31
2017-07-03T17:40:34.301Z,98145.91
2017-07-03T17:43:01.794Z,98140.99
2017-07-03T17:45:30.222Z,98139.52
2017-07-03T17:47:58.126Z,98141.93
2017-07-03T17:50:25.575Z,98136.70
2017-07-03T17:52:53.017Z,98144.20
2017-07-03T17:55:21.387Z,98140.94
2017-07-03T17:57:50.542Z,98139.38
2017-07-03T18:00:18.951Z,98140.70
2017-07-03T18:02:48.375Z,98137.28
2017-07-03T18:05:16.096Z,98138.63
2017-07-03T18:07:43.555Z,98137.94
2017-07-03T18:10:11.091Z,98136.72
2017-07-03T18:12:39.926Z,98139.14
2017-07-03T18:15:07.545Z,98146.51
2017-07-03T18:17:35.765Z,98147.67
2017-07-03T18:20:05.031Z,98156.55
2017-07-03T18:22:32.929Z,98149.87
2017-07-03T18:25:03.363Z,98151.42
2017-07-03T18:27:32.474Z,98156.25
2017-07-03T18:30:01.370Z,98153.68
2017-07-03T18:32:30.330Z,98157.96
2017-07-03T18:34:59.973Z,98160.36
2017-07-03T18:37:29.009Z,98161.30
2017-07-03T18:39:58.349Z,98155.67
2017-07-03T18:42:27.723Z,98163.45
2017-07-03T18:44:56.072Z,98156.44
2017-07-03T18:47:25.262Z,98162.77
2017-07-03T18:49:54.351Z,98162.94
2017-07-03T18:52:23.018Z,98167.12
2017-07-03T18:54:52.278Z,98171.09
2017-07-03T18:57:19.705Z,98170.44
2017-07-03T18:59:47.252Z,98173.39
2017-07-03T19:02:14.714Z,98169.81
2017-07-03T19:04:44.830Z,98167.39
2017-07-03T19:07:12.265Z,98172.56
2017-07-03T19:09:40.615Z,98172.25
2017-07-03T19:12:08.048Z,98176.77
2017-07-03T19:14:35.506Z,98181.98
2017-07-03T19:17:03.235Z,98185.09
2017-07-03T19:19:32.227Z,98181.96
2017-07-03T19:22:00.210Z,98184.53
2017-07-03T19:24:27.867Z,98187.20
2017-07-03T19:26:55.372Z,98186.92
2017-07-03T19:29:24.467Z,98193.22
2017-07-03T19:31:54.043Z,98190.62
2017-07-03T19:34:24.095Z,98185.42
2017-07-03T19:36:51.606Z,98193.86
2017-07-03T19:39:19.078Z,98187.61
2017-07-03T19:41:48.099Z,98191.12
2017-07-03T19:44:16.609Z,98190.50
2017-07-03T19:46:44.817Z,98188.63
2017-07-03T19:49:12.291Z,98189.36
2017-07-03T19:51:39.740Z,98187.64
2017-07-03T19:54:07.208Z,98189.00
2017-07-03T19:56:34.648Z,98192.48
2017-07-03T19:59:03.330Z,98196.09
2017-07-03T20:01:32.732Z,98191.12
2017-07-03T20:04:02.279Z,98199.54
2017-07-03T20:06:31.232Z,98197.61
2017-07-03T20:09:01.325Z,98200.25
2017-07-03T20:11:30.692Z,98199.77
2017-07-03T20:13:59.800Z,98200.85
2017-07-03T20:16:28.481Z,98199.14
2017-07-03T20:18:56.592Z,98194.55
2017-07-03T20:21:25.495Z,98195.33
2017-07-03T20:23:55.105Z,98202.62
2017-07-03T20:26:24.358Z,98205.15
2017-07-03T20:28:51.823Z,98201.87
2017-07-03T20:31:19.225Z,98202.62
2017-07-03T20:33:46.633Z,98202.56
2017-07-03T20:36:14.067Z,98209.39
2017-07-03T20:38:41.509Z,98201.59
2017-07-03T20:41:10.801Z,98203.47
2017-07-03T20:43:38.439Z,98206.97
2017-07-03T20:46:05.861Z,98215.20
2017-07-03T20:48:33.295Z,98210.70
2017-07-03T20:51:00.754Z,98208.03
2017-07-03T20:53:28.163Z,98207.73
2017-07-03T20:55:55.594Z,98207.45
2017-07-03T20:58:23.010Z,98209.67
2017-07-03T21:00:50.458Z,98201.59
2017-07-03T21:03:17.939Z,98207.94
2017-07-03T21:05:45.407Z,98206.98
2017-07-03T21:08:13.074Z,98210.06
2017-07-03T21:10:40.492Z,98216.58
2017-07-03T21:13:07.995Z,98219.18
2017-07-03T21:15:35.410Z,98214.73
2017-07-03T21:18:02.997Z,98211.04
2017-07-03T21:20:30.456Z,98217.65
2017-07-03T21:22:57.892Z,98217.19
2017-07-03T21:25:25.484Z,98217.06
2017-07-03T21:27:52.923Z,98216.84
2017-07-03T21:30:22.166Z,98214.33
2017-07-03T21:32:49.605Z,98210.17
2017-07-03T21:35:17.092Z,98219.04
2017-07-03T21:37:44.553Z,98216.16
2017-07-03T21:40:11.997Z,98222.63
2017-07-03T21:42:39.429Z,98224.06
2017-07-03T21:45:06.888Z,98223.52
2017-07-03T21:47:34.308Z,98226.25
2017-07-03T21:50:01.742Z,98216.07
2017-07-03T21:52:29.421Z,98217.37
2017-07-03T21:54:56.834Z,98214.64
2017-07-03T21:57:24.340Z,98216.92
2017-07-03T21:59:51.767Z,98220.22
2017-07-03T22:02:19.179Z,98221.05
2017-07-03T22:04:46.632Z,98225.28
2017-07-03T22:07:16.561Z,98225.02
2017-07-03T22:09:43.988Z,98226.25
2017-07-03T22:12:11.424Z,98221.48
2017-07-03T22:14:38.820Z,98223.69
2017-07-03T22:17:06.424Z,98221.66
2017-07-03T22:19:35.186Z,98224.95
2017-07-03T22:22:02.624Z,98231.44
2017-07-03T22:24:30.047Z,98230.41
2017-07-03T22:26:57.531Z,98221.76
2017-07-03T22:29:24.981Z,98228.70
2017-07-03T22:31:52.395Z,98223.02
2017-07-03T22:34:21.740Z,98222.72
2017-07-03T22:36:49.535Z,98222.72
2017-07-03T22:39:17.319Z,98216.56
2017-07-03T22:41:46.882Z,98227.41
2017-07-03T22:44:15.894Z,98222.98
2017-07-03T22:46:45.455Z,98222.55
2017-07-03T22:49:14.711Z,98225.91
2017-07-03T22:51:44.163Z,98222.31
2017-07-03T22:54:13.461Z,98223.14
2017-07-03T22:56:42.967Z,98220.27
2017-07-03T22:59:10.398Z,98216.25
2017-07-03T23:01:37.827Z,98225.22
2017-07-03T23:04:05.275Z,98226.05
2017-07-03T23:06:32.687Z,98226.97
2017-07-03T23:09:01.901Z,98225.50
2017-07-03T23:11:29.860Z,98224.25
2017-07-03T23:13:57.352Z,98225.86
2017-07-03T23:16:24.850Z,98226.37
2017-07-03T23:18:52.313Z,98229.53
2017-07-03T23:21:20.370Z,98226.63
2017-07-03T23:23:47.792Z,98229.89
2017-07-03T23:26:15.219Z,98230.16
2017-07-03T23:28:44.405Z,98225.42
2017-07-03T23:31:11.837Z,98223.66
2017-07-03T23:33:39.461Z,98220.19
2017-07-03T23:36:06.890Z,98225.41
2017-07-03T23:38:34.408Z,98223.64
2017-07-03T23:41:01.828Z,98224.63
2017-07-03T23:43:29.238Z,98219.11
2017-07-03T23:45:57.172Z,98218.20
2017-07-03T23:48:24.590Z,98220.47
2017-07-03T23:50:53.014Z,98218.22
2017-07-03T23:53:20.436Z,98220.00
2017-07-03T23:55:47.896Z,98221.52
2017-07-03T23:58:15.958Z,98217.33
